sensor_id;sensor_type;location;lat;lon;timestamp;pressure;altitude;pressure_sealevel;temperature;humidity
78210;BME280;67485;48.816;9.930;2023-03-03T00:01:19;96975.31;;;1.25;78.61
78210;BME280;67485;48.816;9.930;2023-03-03T00:03:45;96984.63;;;1.16;79.16
78210;BME280;67485;48.816;9.930;2023-03-03T00:06:12;96980.28;;;1.11;79.54
78210;BME280;67485;48.816;9.930;2023-03-03T00:08:39;96981.09;;;1.09;79.53
78210;BME280;67485;48.816;9.930;2023-03-03T00:11:05;96982.78;;;1.05;80.10
78210;BME280;67485;48.816;9.930;2023-03-03T00:13:40;96977.66;;;1.08;80.07
78210;BME280;67485;48.816;9.930;2023-03-03T00:18:42;96983.72;;;1.10;79.71
78210;BME280;67485;48.816;9.930;2023-03-03T00:21:31;96976.75;;;1.05;79.92
78210;BME280;67485;48.816;9.930;2023-03-03T00:24:13;96981.00;;;1.01;80.24
78210;BME280;67485;48.816;9.930;2023-03-03T00:26:43;96981.00;;;1.01;80.23
78210;BME280;67485;48.816;9.930;2023-03-03T00:29:32;96982.72;;;0.99;80.35
78210;BME280;67485;48.816;9.930;2023-03-03T00:32:21;96989.56;;;0.97;80.03
78210;BME280;67485;48.816;9.930;2023-03-03T00:34:47;96992.84;;;0.87;80.15
78210;BME280;67485;48.816;9.930;2023-03-03T00:37:30;96987.53;;;0.77;80.32
78210;BME280;67485;48.816;9.930;2023-03-03T00:40:20;96991.03;;;0.79;80.88
78210;BME280;67485;48.816;9.930;2023-03-03T00:42:49;96979.78;;;0.74;80.79
78210;BME280;67485;48.816;9.930;2023-03-03T00:45:42;96985.81;;;0.76;80.72
78210;BME280;67485;48.816;9.930;2023-03-03T00:50:59;96985.75;;;0.70;81.09
78210;BME280;67485;48.816;9.930;2023-03-03T00:53:29;96977.09;;;0.67;81.07
78210;BME280;67485;48.816;9.930;2023-03-03T00:55:55;96981.47;;;0.74;81.26
78210;BME280;67485;48.816;9.930;2023-03-03T00:58:22;96985.75;;;0.70;81.32
78210;BME280;67485;48.816;9.930;2023-03-03T01:00:52;96980.44;;;0.61;81.52
78210;BME280;67485;48.816;9.930;2023-03-03T01:03:24;96981.34;;;0.64;81.92
78210;BME280;67485;48.816;9.930;2023-03-03T01:05:52;96992.56;;;0.68;81.64
78210;BME280;67485;48.816;9.930;2023-03-03T01:08:18;96985.75;;;0.70;81.61
78210;BME280;67485;48.816;9.930;2023-03-03T01:10:52;96974.63;;;0.76;81.49
78210;BME280;67485;48.816;9.930;2023-03-03T01:13:21;96978.03;;;0.75;81.36
78210;BME280;67485;48.816;9.930;2023-03-03T01:15:48;96979.50;;;0.57;81.25
78210;BME280;67485;48.816;9.930;2023-03-03T01:18:14;96980.31;;;0.55;81.49
78210;BME280;67485;48.816;9.930;2023-03-03T01:20:40;96970.09;;;0.61;82.28
78210;BME280;67485;48.816;9.930;2023-03-03T01:23:06;96971.84;;;0.62;82.40
78210;BME280;67485;48.816;9.930;2023-03-03T01:25:32;96970.94;;;0.60;82.38
78210;BME280;67485;48.816;9.930;2023-03-03T01:27:58;96966.50;;;0.50;82.65
78210;BME280;67485;48.816;9.930;2023-03-03T01:30:25;96971.75;;;0.56;82.65
78210;BME280;67485;48.816;9.930;2023-03-03T01:32:51;96970.75;;;0.47;82.37
78210;BME280;67485;48.816;9.930;2023-03-03T01:35:17;96969.00;;;0.45;81.91
78210;BME280;67485;48.816;9.930;2023-03-03T01:37:42;96969.16;;;0.54;81.80
78210;BME280;67485;48.816;9.930;2023-03-03T01:40:18;96970.00;;;0.55;81.91
78210;BME280;67485;48.816;9.930;2023-03-03T01:42:44;96970.06;;;0.58;81.74
78210;BME280;67485;48.816;9.930;2023-03-03T01:45:29;96964.84;;;0.55;81.87
78210;BME280;67485;48.816;9.930;2023-03-03T01:48:00;96968.34;;;0.58;82.07
78210;BME280;67485;48.816;9.930;2023-03-03T01:50:37;96961.44;;;0.56;82.13
78210;BME280;67485;48.816;9.930;2023-03-03T01:53:11;96972.50;;;0.48;82.00
78210;BME280;67485;48.816;9.930;2023-03-03T01:55:38;96971.63;;;0.46;82.17
78210;BME280;67485;48.816;9.930;2023-03-03T01:58:27;96968.25;;;0.51;81.83
78210;BME280;67485;48.816;9.930;2023-03-03T02:01:01;96977.72;;;0.52;82.16
78210;BME280;67485;48.816;9.930;2023-03-03T02:03:28;96971.06;;;0.68;82.34
78210;BME280;67485;48.816;9.930;2023-03-03T02:05:59;96969.47;;;0.76;81.73
78210;BME280;67485;48.816;9.930;2023-03-03T02:08:32;96958.28;;;0.75;81.42
78210;BME280;67485;48.816;9.930;2023-03-03T02:11:02;96959.16;;;0.77;81.13
78210;BME280;67485;48.816;9.930;2023-03-03T02:13:29;96960.88;;;0.75;80.75
78210;BME280;67485;48.816;9.930;2023-03-03T02:15:54;96955.66;;;0.72;80.81
78210;BME280;67485;48.816;9.930;2023-03-03T02:18:21;96950.50;;;0.74;80.37
78210;BME280;67485;48.816;9.930;2023-03-03T02:21:02;96945.31;;;0.71;80.89
78210;BME280;67485;48.816;9.930;2023-03-03T02:23:37;96947.78;;;0.63;81.01
78210;BME280;67485;48.816;9.930;2023-03-03T02:26:20;96944.28;;;0.58;81.40
78210;BME280;67485;48.816;9.930;2023-03-03T02:28:48;96939.91;;;0.52;81.42
78210;BME280;67485;48.816;9.930;2023-03-03T02:31:19;96939.91;;;0.52;81.68
78210;BME280;67485;48.816;9.930;2023-03-03T02:33:47;96944.13;;;0.48;82.26
78210;BME280;67485;48.816;9.930;2023-03-03T02:36:18;96945.88;;;0.50;83.03
78210;BME280;67485;48.816;9.930;2023-03-03T02:39:08;96945.88;;;0.50;82.61
78210;BME280;67485;48.816;9.930;2023-03-03T02:41:43;96944.13;;;0.47;83.53
78210;BME280;67485;48.816;9.930;2023-03-03T02:44:13;96947.41;;;0.38;83.54
78210;BME280;67485;48.816;9.930;2023-03-03T02:46:44;96943.91;;;0.33;84.78
78210;BME280;67485;48.816;9.930;2023-03-03T02:49:13;96945.75;;;0.40;84.08
78210;BME280;67485;48.816;9.930;2023-03-03T02:51:41;96945.75;;;0.40;84.09
78210;BME280;67485;48.816;9.930;2023-03-03T02:54:08;96956.06;;;0.40;84.17
78210;BME280;67485;48.816;9.930;2023-03-03T02:56:35;96957.00;;;0.45;84.28
78210;BME280;67485;48.816;9.930;2023-03-03T02:59:01;96956.31;;;0.59;83.24
78210;BME280;67485;48.816;9.930;2023-03-03T03:01:30;96954.59;;;0.58;83.62
78210;BME280;67485;48.816;9.930;2023-03-03T03:04:06;96956.38;;;0.62;83.33
78210;BME280;67485;48.816;9.930;2023-03-03T03:06:33;96953.88;;;0.68;82.79
78210;BME280;67485;48.816;9.930;2023-03-03T03:09:00;96964.47;;;0.88;82.24
78210;BME280;67485;48.816;9.930;2023-03-03T03:11:26;96956.06;;;1.02;81.48
78210;BME280;67485;48.816;9.930;2023-03-03T03:13:52;96960.41;;;1.04;81.17
78210;BME280;67485;48.816;9.930;2023-03-03T03:16:18;96965.56;;;1.04;80.96
78210;BME280;67485;48.816;9.930;2023-03-03T03:18:44;96964.66;;;1.02;81.29
78210;BME280;67485;48.816;9.930;2023-03-03T03:21:12;96957.66;;;0.93;81.33
78210;BME280;67485;48.816;9.930;2023-03-03T03:23:39;96964.59;;;0.97;81.34
78210;BME280;67485;48.816;9.930;2023-03-03T03:26:06;96961.22;;;1.02;81.15
78210;BME280;67485;48.816;9.930;2023-03-03T03:28:33;96958.66;;;1.03;81.22
78210;BME280;67485;48.816;9.930;2023-03-03T03:31:00;96959.41;;;0.93;81.82
78210;BME280;67485;48.816;9.930;2023-03-03T03:33:26;96959.25;;;0.85;82.24
78210;BME280;67485;48.816;9.930;2023-03-03T03:35:54;96964.47;;;0.88;82.12
78210;BME280;67485;48.816;9.930;2023-03-03T03:38:21;96957.66;;;0.90;81.26
78210;BME280;67485;48.816;9.930;2023-03-03T03:40:47;96967.16;;;0.96;81.33
78210;BME280;67485;48.816;9.930;2023-03-03T03:43:13;96972.97;;;0.81;81.75
78210;BME280;67485;48.816;9.930;2023-03-03T03:45:43;96969.19;;;0.57;83.01
78210;BME280;67485;48.816;9.930;2023-03-03T03:48:09;96968.19;;;0.47;83.67
78210;BME280;67485;48.816;9.930;2023-03-03T03:50:36;96957.88;;;0.47;83.50
78210;BME280;67485;48.816;9.930;2023-03-03T03:53:02;96966.50;;;0.50;84.22
78210;BME280;67485;48.816;9.930;2023-03-03T03:55:29;96966.28;;;0.34;84.51
78210;BME280;67485;48.816;9.930;2023-03-03T03:57:56;96962.91;;;0.38;84.41
78210;BME280;67485;48.816;9.930;2023-03-03T04:00:22;96966.38;;;0.40;84.01
78210;BME280;67485;48.816;9.930;2023-03-03T04:02:53;96971.56;;;0.45;83.74
78210;BME280;67485;48.816;9.930;2023-03-03T04:05:19;96960.31;;;0.38;84.19
78210;BME280;67485;48.816;9.930;2023-03-03T04:07:45;96974.03;;;0.36;84.54
78210;BME280;67485;48.816;9.930;2023-03-03T04:10:11;96973.13;;;0.34;84.70
78210;BME280;67485;48.816;9.930;2023-03-03T04:12:38;96971.56;;;0.43;84.59
78210;BME280;67485;48.816;9.930;2023-03-03T04:15:08;96972.47;;;0.45;84.90
78210;BME280;67485;48.816;9.930;2023-03-03T04:17:35;96968.34;;;0.57;84.81
78210;BME280;67485;48.816;9.930;2023-03-03T04:20:01;96968.34;;;0.57;84.48
78210;BME280;67485;48.816;9.930;2023-03-03T04:22:29;96974.25;;;0.50;84.89
78210;BME280;67485;48.816;9.930;2023-03-03T04:24:59;96969.88;;;0.45;85.13
78210;BME280;67485;48.816;9.930;2023-03-03T04:27:26;96967.34;;;0.48;84.60
78210;BME280;67485;48.816;9.930;2023-03-03T04:29:52;96966.38;;;0.40;85.14
78210;BME280;67485;48.816;9.930;2023-03-03T04:32:18;96968.84;;;0.34;84.74
78210;BME280;67485;48.816;9.930;2023-03-03T04:34:45;96967.94;;;0.32;84.30
78210;BME280;67485;48.816;9.930;2023-03-03T04:37:10;96968.78;;;0.31;85.03
78210;BME280;67485;48.816;9.930;2023-03-03T04:39:36;96960.09;;;0.24;84.72
78210;BME280;67485;48.816;9.930;2023-03-03T04:42:02;96969.50;;;0.21;84.83
78210;BME280;67485;48.816;9.930;2023-03-03T04:44:28;96977.84;;;0.07;85.39
78210;BME280;67485;48.816;9.930;2023-03-03T04:46:54;96970.94;;;0.06;86.16
78210;BME280;67485;48.816;9.930;2023-03-03T04:49:20;96972.75;;;0.10;85.83
78210;BME280;67485;48.816;9.930;2023-03-03T04:51:46;96967.53;;;0.07;85.86
78210;BME280;67485;48.816;9.930;2023-03-03T04:54:12;96981.38;;;0.12;85.90
78210;BME280;67485;48.816;9.930;2023-03-03T04:56:38;96984.63;;;0.02;86.14
78210;BME280;67485;48.816;9.930;2023-03-03T04:59:03;96979.38;;;-0.04;86.81
78210;BME280;67485;48.816;9.930;2023-03-03T05:01:29;96983.88;;;0.08;86.01
78210;BME280;67485;48.816;9.930;2023-03-03T05:03:55;96988.03;;;0.01;85.89
78210;BME280;67485;48.816;9.930;2023-03-03T05:06:21;96993.25;;;0.03;86.15
78210;BME280;67485;48.816;9.930;2023-03-03T05:08:46;96994.91;;;-0.01;86.04
78210;BME280;67485;48.816;9.930;2023-03-03T05:11:12;97000.97;;;0.03;86.28
78210;BME280;67485;48.816;9.930;2023-03-03T05:13:38;96996.63;;;0.00;85.73
78210;BME280;67485;48.816;9.930;2023-03-03T05:16:04;96996.63;;;0.00;85.49
78210;BME280;67485;48.816;9.930;2023-03-03T05:18:30;96996.56;;;-0.03;85.41
78210;BME280;67485;48.816;9.930;2023-03-03T05:20:56;96994.81;;;-0.04;85.61
78210;BME280;67485;48.816;9.930;2023-03-03T05:23:22;97001.78;;;0.00;85.71
78210;BME280;67485;48.816;9.930;2023-03-03T05:25:48;96996.78;;;0.08;86.54
78210;BME280;67485;48.816;9.930;2023-03-03T05:28:15;97003.56;;;0.03;86.21
78210;BME280;67485;48.816;9.930;2023-03-03T05:30:41;97003.34;;;-0.08;86.30
78210;BME280;67485;48.816;9.930;2023-03-03T05:33:06;97005.78;;;-0.16;86.87
78210;BME280;67485;48.816;9.930;2023-03-03T05:35:33;97015.31;;;-0.10;87.48
78210;BME280;67485;48.816;9.930;2023-03-03T05:37:59;97006.94;;;0.00;87.02
78210;BME280;67485;48.816;9.930;2023-03-03T05:40:26;97019.66;;;-0.08;86.87
78210;BME280;67485;48.816;9.930;2023-03-03T05:42:52;97023.25;;;-0.01;87.45
78210;BME280;67485;48.816;9.930;2023-03-03T05:45:18;97022.34;;;-0.03;87.82
78210;BME280;67485;48.816;9.930;2023-03-03T05:47:52;97027.56;;;0.00;87.29
78210;BME280;67485;48.816;9.930;2023-03-03T05:50:19;97029.22;;;-0.04;87.91
78210;BME280;67485;48.816;9.930;2023-03-03T05:52:49;97024.94;;;-0.02;87.59
78210;BME280;67485;48.816;9.930;2023-03-03T05:55:15;97030.97;;;-0.01;86.85
78210;BME280;67485;48.816;9.930;2023-03-03T05:57:41;97033.47;;;-0.06;86.78
78210;BME280;67485;48.816;9.930;2023-03-03T06:00:07;97034.31;;;-0.05;86.99
78210;BME280;67485;48.816;9.930;2023-03-03T06:02:40;97030.19;;;0.03;86.69
78210;BME280;67485;48.816;9.930;2023-03-03T06:05:06;97027.66;;;0.06;86.14
78210;BME280;67485;48.816;9.930;2023-03-03T06:07:32;97032.78;;;0.06;86.62
78210;BME280;67485;48.816;9.930;2023-03-03T06:09:58;97034.50;;;0.04;86.08
78210;BME280;67485;48.816;9.930;2023-03-03T06:12:24;97036.28;;;0.08;86.32
78210;BME280;67485;48.816;9.930;2023-03-03T06:14:49;97039.63;;;0.03;86.25
78210;BME280;67485;48.816;9.930;2023-03-03T06:17:15;97036.06;;;-0.04;86.58
78210;BME280;67485;48.816;9.930;2023-03-03T06:19:41;97039.34;;;-0.11;87.03
78210;BME280;67485;48.816;9.930;2023-03-03T06:22:07;97042.97;;;-0.02;86.05
78210;BME280;67485;48.816;9.930;2023-03-03T06:24:33;97049.06;;;0.04;85.84
78210;BME280;67485;48.816;9.930;2023-03-03T06:26:59;97046.53;;;0.05;85.32
78210;BME280;67485;48.816;9.930;2023-03-03T06:29:25;97045.75;;;0.09;85.25
78210;BME280;67485;48.816;9.930;2023-03-03T06:31:51;97056.78;;;0.02;85.35
78210;BME280;67485;48.816;9.930;2023-03-03T06:34:17;97067.22;;;0.08;85.14
78210;BME280;67485;48.816;9.930;2023-03-03T06:36:43;97056.81;;;0.04;85.45
78210;BME280;67485;48.816;9.930;2023-03-03T06:39:09;97063.78;;;0.09;85.80
78210;BME280;67485;48.816;9.930;2023-03-03T06:41:35;97068.84;;;0.03;85.72
78210;BME280;67485;48.816;9.930;2023-03-03T06:44:00;97075.66;;;0.01;86.45
78210;BME280;67485;48.816;9.930;2023-03-03T06:46:26;97079.38;;;0.15;87.06
78210;BME280;67485;48.816;9.930;2023-03-03T06:48:52;97077.75;;;0.21;86.92
78210;BME280;67485;48.816;9.930;2023-03-03T06:51:38;97077.78;;;0.24;86.80
78210;BME280;67485;48.816;9.930;2023-03-03T06:54:15;97078.66;;;0.24;86.25
78210;BME280;67485;48.816;9.930;2023-03-03T06:56:43;97078.81;;;0.32;86.74
78210;BME280;67485;48.816;9.930;2023-03-03T07:01:36;97074.59;;;0.37;86.28
78210;BME280;67485;48.816;9.930;2023-03-03T07:06:46;97076.56;;;0.51;85.22
78210;BME280;67485;48.816;9.930;2023-03-03T07:09:22;97086.75;;;0.44;85.32
78210;BME280;67485;48.816;9.930;2023-03-03T07:11:50;97083.56;;;0.58;85.89
78210;BME280;67485;48.816;9.930;2023-03-03T07:14:18;97085.75;;;0.87;85.80
78210;BME280;67485;48.816;9.930;2023-03-03T07:16:45;97094.41;;;0.92;85.17
78210;BME280;67485;48.816;9.930;2023-03-03T07:19:19;97088.53;;;1.02;84.80
78210;BME280;67485;48.816;9.930;2023-03-03T07:21:45;97087.81;;;1.09;84.54
78210;BME280;67485;48.816;9.930;2023-03-03T07:24:27;97095.66;;;1.19;83.25
78210;BME280;67485;48.816;9.930;2023-03-03T07:29:30;97101.84;;;1.30;83.31
78210;BME280;67485;48.816;9.930;2023-03-03T07:31:59;97093.34;;;1.34;83.31
78210;BME280;67485;48.816;9.930;2023-03-03T07:34:39;97092.44;;;1.34;82.80
78210;BME280;67485;48.816;9.930;2023-03-03T07:37:34;97098.41;;;1.28;82.98
78210;BME280;67485;48.816;9.930;2023-03-03T07:45:44;97095.44;;;1.63;82.28
78210;BME280;67485;48.816;9.930;2023-03-03T07:48:25;97099.09;;;1.81;81.20
78210;BME280;67485;48.816;9.930;2023-03-03T07:50:57;97103.47;;;1.86;80.80
78210;BME280;67485;48.816;9.930;2023-03-03T07:53:29;97109.38;;;1.74;81.41
78210;BME280;67485;48.816;9.930;2023-03-03T07:55:59;97102.56;;;1.83;81.25
78210;BME280;67485;48.816;9.930;2023-03-03T07:58:39;97108.72;;;1.94;80.78
78210;BME280;67485;48.816;9.930;2023-03-03T08:01:23;97097.66;;;2.04;80.25
78210;BME280;67485;48.816;9.930;2023-03-03T08:03:54;97099.50;;;2.18;79.99
78210;BME280;67485;48.816;9.930;2023-03-03T08:06:43;97100.38;;;2.17;80.43
78210;BME280;67485;48.816;9.930;2023-03-03T08:14:29;97108.38;;;2.38;79.52
78210;BME280;67485;48.816;9.930;2023-03-03T08:16:56;97098.09;;;2.48;78.93
78210;BME280;67485;48.816;9.930;2023-03-03T08:19:22;97094.84;;;2.66;78.09
78210;BME280;67485;48.816;9.930;2023-03-03T08:21:48;97104.75;;;3.24;77.00
78210;BME280;67485;48.816;9.930;2023-03-03T08:24:14;97103.03;;;3.20;75.61
78210;BME280;67485;48.816;9.930;2023-03-03T08:26:40;97110.78;;;3.17;75.85
78210;BME280;67485;48.816;9.930;2023-03-03T08:29:05;97109.97;;;3.26;75.66
78210;BME280;67485;48.816;9.930;2023-03-03T08:31:31;97114.31;;;3.33;75.28
78210;BME280;67485;48.816;9.930;2023-03-03T08:33:57;97112.59;;;3.30;74.82
78210;BME280;67485;48.816;9.930;2023-03-03T08:36:23;97115.97;;;3.17;75.54
78210;BME280;67485;48.816;9.930;2023-03-03T08:38:49;97114.31;;;3.28;75.56
78210;BME280;67485;48.816;9.930;2023-03-03T08:41:15;97110.13;;;3.50;75.16
78210;BME280;67485;48.816;9.930;2023-03-03T08:43:41;97122.44;;;3.92;74.48
78210;BME280;67485;48.816;9.930;2023-03-03T08:46:09;97125.06;;;4.05;73.72
78210;BME280;67485;48.816;9.930;2023-03-03T08:48:36;97114.84;;;4.46;71.62
78210;BME280;67485;48.816;9.930;2023-03-03T08:51:02;97123.47;;;4.42;71.47
78210;BME280;67485;48.816;9.930;2023-03-03T08:53:28;97119.19;;;4.58;71.70
78210;BME280;67485;48.816;9.930;2023-03-03T08:55:54;97122.69;;;4.72;69.87
78210;BME280;67485;48.816;9.930;2023-03-03T08:58:20;97129.56;;;4.48;71.27
78210;BME280;67485;48.816;9.930;2023-03-03T09:00:46;97126.13;;;4.66;70.97
78210;BME280;67485;48.816;9.930;2023-03-03T09:03:12;97128.75;;;4.97;70.48
78210;BME280;67485;48.816;9.930;2023-03-03T09:05:39;97131.34;;;4.73;70.83
78210;BME280;67485;48.816;9.930;2023-03-03T09:08:06;97135.59;;;4.41;72.08
78210;BME280;67485;48.816;9.930;2023-03-03T09:10:32;97138.97;;;4.18;73.82
78210;BME280;67485;48.816;9.930;2023-03-03T09:13:12;97128.59;;;4.11;74.36
78210;BME280;67485;48.816;9.930;2023-03-03T09:15:38;97135.47;;;4.09;74.29
78210;BME280;67485;48.816;9.930;2023-03-03T09:20:43;97134.78;;;4.54;73.15
78210;BME280;67485;48.816;9.930;2023-03-03T09:23:29;97151.06;;;4.15;73.72
78210;BME280;67485;48.816;9.930;2023-03-03T09:25:57;97159.84;;;4.60;73.21
78210;BME280;67485;48.816;9.930;2023-03-03T09:28:26;97159.84;;;4.51;72.93
78210;BME280;67485;48.816;9.930;2023-03-03T09:30:56;97146.88;;;4.68;72.29
78210;BME280;67485;48.816;9.930;2023-03-03T09:33:42;97151.25;;;4.95;71.57
78210;BME280;67485;48.816;9.930;2023-03-03T09:36:29;97153.00;;;4.99;70.21
78210;BME280;67485;48.816;9.930;2023-03-03T09:39:10;97153.03;;;5.07;70.02
78210;BME280;67485;48.816;9.930;2023-03-03T09:47:40;97149.53;;;5.07;69.97
78210;BME280;67485;48.816;9.930;2023-03-03T09:55:58;97152.94;;;4.56;70.70
78210;BME280;67485;48.816;9.930;2023-03-03T09:58:44;97153.84;;;4.89;70.29
78210;BME280;67485;48.816;9.930;2023-03-03T10:09:45;97150.41;;;5.19;66.62
78210;BME280;67485;48.816;9.930;2023-03-03T10:17:25;97160.75;;;5.71;66.06
78210;BME280;67485;48.816;9.930;2023-03-03T10:20:10;97151.25;;;5.60;64.71
78210;BME280;67485;48.816;9.930;2023-03-03T10:22:51;97156.44;;;5.59;64.14
78210;BME280;67485;48.816;9.930;2023-03-03T10:25:44;97159.09;;;5.37;64.75
78210;BME280;67485;48.816;9.930;2023-03-03T10:31:19;97156.38;;;5.88;61.92
78210;BME280;67485;48.816;9.930;2023-03-03T10:36:40;97154.56;;;6.20;59.03
78210;BME280;67485;48.816;9.930;2023-03-03T10:48:00;97148.69;;;7.33;54.45
78210;BME280;67485;48.816;9.930;2023-03-03T10:53:34;97150.47;;;7.27;53.84
78210;BME280;67485;48.816;9.930;2023-03-03T10:56:11;97139.91;;;7.40;53.56
78210;BME280;67485;48.816;9.930;2023-03-03T10:59:05;97148.22;;;7.82;53.07
78210;BME280;67485;48.816;9.930;2023-03-03T11:01:58;97151.25;;;7.39;52.84
78210;BME280;67485;48.816;9.930;2023-03-03T11:07:38;97148.19;;;6.84;53.78
78210;BME280;67485;48.816;9.930;2023-03-03T11:18:31;97169.94;;;6.75;56.14
78210;BME280;67485;48.816;9.930;2023-03-03T11:21:15;97162.81;;;7.01;54.12
78210;BME280;67485;48.816;9.930;2023-03-03T11:23:54;97175.25;;;6.60;55.09
78210;BME280;67485;48.816;9.930;2023-03-03T11:29:18;97164.72;;;6.77;55.94
78210;BME280;67485;48.816;9.930;2023-03-03T11:34:52;97157.91;;;6.54;56.94
78210;BME280;67485;48.816;9.930;2023-03-03T11:37:36;97154.28;;;6.80;54.23
78210;BME280;67485;48.816;9.930;2023-03-03T11:40:14;97148.78;;;7.20;53.73
78210;BME280;67485;48.816;9.930;2023-03-03T11:45:22;97149.00;;;7.90;52.13
78210;BME280;67485;48.816;9.930;2023-03-03T11:48:07;97138.00;;;7.57;52.52
78210;BME280;67485;48.816;9.930;2023-03-03T11:53:37;97135.03;;;7.98;50.85
78210;BME280;67485;48.816;9.930;2023-03-03T12:01:38;97128.75;;;8.80;48.77
78210;BME280;67485;48.816;9.930;2023-03-03T12:04:12;97115.75;;;9.81;49.51
78210;BME280;67485;48.816;9.930;2023-03-03T12:07:02;97107.34;;;10.92;46.91
78210;BME280;67485;48.816;9.930;2023-03-03T12:12:22;97102.94;;;11.98;42.91
78210;BME280;67485;48.816;9.930;2023-03-03T12:15:03;97102.31;;;11.88;41.95
78210;BME280;67485;48.816;9.930;2023-03-03T12:23:09;97099.84;;;12.15;41.64
78210;BME280;67485;48.816;9.930;2023-03-03T12:25:42;97091.69;;;11.60;41.92
78210;BME280;67485;48.816;9.930;2023-03-03T12:28:24;97091.34;;;11.39;42.23
78210;BME280;67485;48.816;9.930;2023-03-03T12:34:43;97093.84;;;11.44;42.96
78210;BME280;67485;48.816;9.930;2023-03-03T12:39:29;97096.56;;;11.05;44.10
78210;BME280;67485;48.816;9.930;2023-03-03T12:47:49;97101.75;;;9.34;49.27
78210;BME280;67485;48.816;9.930;2023-03-03T12:58:46;97087.72;;;9.86;47.13
78210;BME280;67485;48.816;9.930;2023-03-03T13:07:04;97094.16;;;9.21;49.69
78210;BME280;67485;48.816;9.930;2023-03-03T13:15:34;97086.78;;;8.90;50.87
78210;BME280;67485;48.816;9.930;2023-03-03T13:20:24;97086.16;;;9.29;50.79
78210;BME280;67485;48.816;9.930;2023-03-03T13:23:16;97090.06;;;9.03;51.84
78210;BME280;67485;48.816;9.930;2023-03-03T13:25:55;97085.91;;;8.91;50.39
78210;BME280;67485;48.816;9.930;2023-03-03T13:28:25;97089.72;;;8.69;50.53
78210;BME280;67485;48.816;9.930;2023-03-03T13:31:00;97087.16;;;8.66;52.69
78210;BME280;67485;48.816;9.930;2023-03-03T13:33:33;97084.47;;;8.72;51.29
78210;BME280;67485;48.816;9.930;2023-03-03T13:36:08;97080.00;;;8.80;51.61
78210;BME280;67485;48.816;9.930;2023-03-03T13:38:46;97080.50;;;9.04;51.19
78210;BME280;67485;48.816;9.930;2023-03-03T13:41:40;97074.53;;;8.94;50.95
78210;BME280;67485;48.816;9.930;2023-03-03T13:47:33;97070.28;;;8.87;52.35
78210;BME280;67485;48.816;9.930;2023-03-03T13:49:54;97059.31;;;9.19;53.05
78210;BME280;67485;48.816;9.930;2023-03-03T13:52:30;97059.25;;;9.22;50.49
78210;BME280;67485;48.816;9.930;2023-03-03T13:55:16;97058.09;;;9.39;51.32
78210;BME280;67485;48.816;9.930;2023-03-03T14:06:04;97050.03;;;9.00;50.57
78210;BME280;67485;48.816;9.930;2023-03-03T14:08:42;97044.19;;;8.85;50.71
78210;BME280;67485;48.816;9.930;2023-03-03T14:11:33;97050.88;;;9.02;51.28
78210;BME280;67485;48.816;9.930;2023-03-03T14:19:31;97036.34;;;9.37;50.95
78210;BME280;67485;48.816;9.930;2023-03-03T14:22:21;97034.69;;;9.33;52.34
78210;BME280;67485;48.816;9.930;2023-03-03T14:25:19;97038.81;;;9.45;51.31
78210;BME280;67485;48.816;9.930;2023-03-03T14:33:02;97041.59;;;9.34;51.35
78210;BME280;67485;48.816;9.930;2023-03-03T14:35:38;97043.63;;;9.19;51.49
78210;BME280;67485;48.816;9.930;2023-03-03T14:40:35;97045.41;;;9.16;51.70
78210;BME280;67485;48.816;9.930;2023-03-03T14:43:18;97040.06;;;9.23;52.04
78210;BME280;67485;48.816;9.930;2023-03-03T14:45:45;97040.59;;;9.41;53.68
78210;BME280;67485;48.816;9.930;2023-03-03T14:48:22;97036.84;;;9.56;51.88
78210;BME280;67485;48.816;9.930;2023-03-03T14:50:51;97038.50;;;9.13;51.42
78210;BME280;67485;48.816;9.930;2023-03-03T14:55:45;97046.81;;;8.84;51.68
78210;BME280;67485;48.816;9.930;2023-03-03T14:58:39;97038.78;;;8.98;52.52
78210;BME280;67485;48.816;9.930;2023-03-03T15:03:34;97038.03;;;8.89;51.47
78210;BME280;67485;48.816;9.930;2023-03-03T15:06:09;97042.16;;;9.03;52.00
78210;BME280;67485;48.816;9.930;2023-03-03T15:08:38;97045.69;;;8.99;51.83
78210;BME280;67485;48.816;9.930;2023-03-03T15:11:13;97033.78;;;8.82;51.49
78210;BME280;67485;48.816;9.930;2023-03-03T15:13:44;97032.00;;;8.84;52.10
78210;BME280;67485;48.816;9.930;2023-03-03T15:16:16;97030.38;;;8.77;52.59
78210;BME280;67485;48.816;9.930;2023-03-03T15:22:17;97022.78;;;8.62;52.84
78210;BME280;67485;48.816;9.930;2023-03-03T15:24:51;97017.44;;;8.69;52.43
78210;BME280;67485;48.816;9.930;2023-03-03T15:27:28;97019.25;;;8.66;52.77
78210;BME280;67485;48.816;9.930;2023-03-03T15:35:51;97011.78;;;8.96;53.29
78210;BME280;67485;48.816;9.930;2023-03-03T15:38:53;97012.75;;;8.88;52.75
78210;BME280;67485;48.816;9.930;2023-03-03T15:44:09;97016.94;;;9.00;51.72
78210;BME280;67485;48.816;9.930;2023-03-03T15:52:39;97020.31;;;8.52;53.42
78210;BME280;67485;48.816;9.930;2023-03-03T16:03:36;97031.09;;;8.27;54.59
78210;BME280;67485;48.816;9.930;2023-03-03T16:06:18;97031.91;;;8.30;55.40
78210;BME280;67485;48.816;9.930;2023-03-03T16:11:54;97029.47;;;8.17;55.74
78210;BME280;67485;48.816;9.930;2023-03-03T16:17:00;97034.69;;;8.17;54.92
78210;BME280;67485;48.816;9.930;2023-03-03T16:19:59;97034.84;;;8.05;55.79
78210;BME280;67485;48.816;9.930;2023-03-03T16:25:15;97043.09;;;7.72;56.92
78210;BME280;67485;48.816;9.930;2023-03-03T16:30:51;97047.59;;;7.59;57.87
78210;BME280;67485;48.816;9.930;2023-03-03T16:34:06;97058.09;;;7.53;58.32
78210;BME280;67485;48.816;9.930;2023-03-03T16:36:36;97061.69;;;7.40;58.79
78210;BME280;67485;48.816;9.930;2023-03-03T16:39:25;97067.00;;;7.34;58.85
78210;BME280;67485;48.816;9.930;2023-03-03T16:42:25;97074.94;;;7.21;59.61
78210;BME280;67485;48.816;9.930;2023-03-03T17:01:44;97089.28;;;6.61;61.96
78210;BME280;67485;48.816;9.930;2023-03-03T17:04:39;97091.13;;;6.48;62.84
78210;BME280;67485;48.816;9.930;2023-03-03T17:07:43;97103.31;;;6.36;62.94
78210;BME280;67485;48.816;9.930;2023-03-03T17:10:45;97099.91;;;6.27;63.62
78210;BME280;67485;48.816;9.930;2023-03-03T17:19:03;97112.16;;;6.00;64.56
78210;BME280;67485;48.816;9.930;2023-03-03T17:30:13;97123.47;;;5.72;65.19
78210;BME280;67485;48.816;9.930;2023-03-03T17:32:43;97128.72;;;5.62;65.60
78210;BME280;67485;48.816;9.930;2023-03-03T17:41:08;97137.38;;;5.61;65.86